Anshan, China
Current Conditions -  °F | °C
As of 5:00 PM on Tuesday 21 Oct 2014 (Local Time) from ZYTX Reporting Station
Clear Clear  
Wind Chill: 42°   Ceiling: Unl
Heat Index: 46°   Visibility: 6mi
Dew Point:   Wind: 9mph
Humidity: 14%   Direction: 360°N
Pressure: 30.24"   Gusts: NA
Location:  41.12°N, 122.95°E
Report Text: ZYTX 210900Z 36004MPS CAVOK 08/M18 Q1024 NOSIG
Loading
Personal Weather Stations






























Interactive Weather Map
Tropical Storm Tracking
New forecast layout! Learn more

10-Day Weather Forecast

Advertisements
Track Severe Weather on mobile